createdAt,value
2022-11-25T00:02:26.301Z,101140.31
2022-11-25T00:05:04.486Z,101115.47
2022-11-25T00:07:54.261Z,101141.66
2022-11-25T00:10:45.361Z,101139.81
2022-11-25T00:13:31.561Z,101136.81
2022-11-25T00:16:10.165Z,101148.63
2022-11-25T00:19:09.242Z,101150.00
2022-11-25T00:21:46.022Z,101154.72
2022-11-25T00:27:42.221Z,101147.06
2022-11-25T00:30:32.842Z,101128.38
2022-11-25T00:33:15.559Z,101151.88
2022-11-25T00:36:00.637Z,101160.97
2022-11-25T00:38:54.274Z,101143.38
2022-11-25T00:41:41.518Z,101146.09
2022-11-25T00:44:34.873Z,101154.09
2022-11-25T00:47:22.091Z,101058.84
2022-11-25T00:50:09.811Z,101121.56
2022-11-25T00:53:02.490Z,101118.16
2022-11-25T00:55:59.787Z,101107.53
2022-11-25T01:01:56.853Z,101100.50
2022-11-25T01:04:34.537Z,101117.03
2022-11-25T01:10:24.130Z,101112.84
2022-11-25T01:13:10.234Z,101124.66
2022-11-25T01:15:48.278Z,101131.09
2022-11-25T01:18:29.746Z,101135.03
2022-11-25T01:21:13.806Z,101129.56
2022-11-25T01:23:58.567Z,101127.31
2022-11-25T01:26:43.317Z,101107.31
2022-11-25T01:29:29.134Z,101107.78
2022-11-25T01:32:34.996Z,101096.53
2022-11-25T01:35:14.850Z,101098.31
2022-11-25T01:37:59.461Z,101101.16
2022-11-25T01:40:45.572Z,101101.66
2022-11-25T01:46:48.344Z,101100.31
2022-11-25T01:49:29.465Z,101097.28
2022-11-25T01:52:23.047Z,101092.75
2022-11-25T01:55:06.667Z,101082.59
2022-11-25T01:57:50.889Z,101072.31
2022-11-25T02:00:37.753Z,101073.94
2022-11-25T02:03:27.398Z,101064.69
2022-11-25T02:06:16.292Z,101020.34
2022-11-25T02:09:07.866Z,100992.16
2022-11-25T02:11:51.312Z,100963.34
2022-11-25T02:17:31.458Z,101032.25
2022-11-25T02:20:08.818Z,101035.47
2022-11-25T02:23:18.090Z,101025.38
2022-11-25T02:25:56.218Z,101020.34
2022-11-25T02:28:56.619Z,101015.75
2022-11-25T02:31:42.229Z,101018.59
2022-11-25T02:34:29.948Z,101018.31
2022-11-25T02:40:08.135Z,101002.63
2022-11-25T02:43:01.614Z,100999.44
2022-11-25T02:46:15.062Z,100998.25
2022-11-25T02:49:08.843Z,100993.91
2022-11-25T02:52:07.627Z,100988.47
2022-11-25T02:55:13.892Z,100979.91
2022-11-25T02:57:58.739Z,100972.91
2022-11-25T03:00:36.124Z,100944.53
2022-11-25T03:03:15.509Z,100971.88
2022-11-25T03:06:01.968Z,100964.56
2022-11-25T03:08:42.126Z,100962.84
2022-11-25T03:11:52.213Z,100967.22
2022-11-25T03:14:31.559Z,100971.75
2022-11-25T03:17:16.662Z,100964.34
2022-11-25T03:19:53.333Z,100960.91
2022-11-25T03:22:31.593Z,100968.19
2022-11-25T03:25:10.461Z,100942.44
2022-11-25T03:27:56.114Z,100903.97
2022-11-25T03:30:42.575Z,100886.66
2022-11-25T03:33:31.724Z,100939.50
2022-11-25T03:36:17.813Z,100929.84
2022-11-25T03:39:18.778Z,100912.69
2022-11-25T03:42:12.078Z,100911.59
2022-11-25T03:44:53.645Z,100896.59
2022-11-25T03:47:42.697Z,100902.81
2022-11-25T03:56:56.220Z,100889.34
2022-11-25T04:00:14.876Z,100889.63
2022-11-25T04:02:53.497Z,100885.84
2022-11-25T04:05:46.944Z,100899.34
2022-11-25T04:08:24.175Z,100898.91
2022-11-25T04:11:12.028Z,100893.28
2022-11-25T04:13:55.679Z,100905.97
2022-11-25T04:19:58.917Z,100903.81
2022-11-25T04:22:46.915Z,100910.19
2022-11-25T04:25:32.503Z,100908.44
2022-11-25T04:28:12.674Z,100913.56
2022-11-25T04:30:57.832Z,100915.44
2022-11-25T04:33:56.458Z,100908.63
2022-11-25T04:36:52.401Z,100896.38
2022-11-25T04:39:37.340Z,100893.94
2022-11-25T04:42:32.320Z,100894.41
2022-11-25T04:45:24.081Z,100893.56
2022-11-25T04:48:13.206Z,100892.84
2022-11-25T04:51:02.308Z,100890.19
2022-11-25T04:54:02.553Z,100910.16
2022-11-25T04:56:48.329Z,100909.78
2022-11-25T04:59:55.098Z,100910.28
2022-11-25T05:02:39.148Z,100897.34
2022-11-25T05:05:19.302Z,100884.78
2022-11-25T05:08:02.411Z,100900.53
2022-11-25T05:10:57.622Z,100904.88
2022-11-25T05:13:37.234Z,100897.84
2022-11-25T05:16:23.184Z,100900.03
2022-11-25T05:19:23.070Z,100910.59
2022-11-25T05:22:20.092Z,100903.97
2022-11-25T05:25:09.855Z,100914.25
2022-11-25T05:28:03.319Z,100905.66
2022-11-25T05:30:45.395Z,100903.59
2022-11-25T05:36:18.633Z,100892.84
2022-11-25T05:39:18.591Z,100871.50
2022-11-25T05:42:19.478Z,100898.25
2022-11-25T05:45:09.819Z,100914.56
2022-11-25T05:47:54.642Z,100908.13
2022-11-25T05:53:40.706Z,100915.69
2022-11-25T05:59:30.003Z,100911.78
2022-11-25T06:02:10.592Z,100910.56
2022-11-25T06:05:11.628Z,100899.09
2022-11-25T06:08:00.533Z,100909.38
2022-11-25T06:11:01.737Z,100903.16
2022-11-25T06:13:38.013Z,100891.78
2022-11-25T06:16:26.316Z,100879.22
2022-11-25T06:19:12.125Z,100899.91
2022-11-25T06:21:54.582Z,100885.44
2022-11-25T06:24:39.727Z,100816.03
2022-11-25T06:27:31.954Z,100869.16
2022-11-25T06:30:32.912Z,100877.59
2022-11-25T06:33:14.779Z,100887.22
2022-11-25T06:36:06.676Z,100887.97
2022-11-25T06:38:54.197Z,100888.72
2022-11-25T06:41:48.315Z,100872.09
2022-11-25T06:44:38.160Z,100884.78
2022-11-25T06:50:15.229Z,100871.19
2022-11-25T06:53:01.876Z,100870.91
2022-11-25T06:55:42.908Z,100867.88
2022-11-25T06:58:34.961Z,100866.03
2022-11-25T07:01:45.621Z,100863.22
2022-11-25T07:04:33.451Z,100865.41
2022-11-25T07:07:35.379Z,100868.69
2022-11-25T07:10:22.175Z,100861.94
2022-11-25T07:13:03.143Z,100855.28
2022-11-25T07:15:53.437Z,100847.22
2022-11-25T07:18:30.251Z,100840.94
2022-11-25T07:21:30.686Z,100820.22
2022-11-25T07:24:30.006Z,100860.69
2022-11-25T07:27:32.933Z,100857.94
2022-11-25T07:30:54.899Z,100858.41
2022-11-25T07:33:08.294Z,100863.81
2022-11-25T07:38:48.371Z,100824.69
2022-11-25T07:41:33.013Z,100873.59
2022-11-25T07:44:19.362Z,100878.72
2022-11-25T07:46:58.802Z,100880.59
2022-11-25T07:49:46.441Z,100883.44
2022-11-25T07:52:33.358Z,100895.34
2022-11-25T07:55:26.498Z,100896.38
2022-11-25T07:58:04.340Z,100882.72
2022-11-25T08:00:43.964Z,100884.53
2022-11-25T08:03:21.323Z,100879.59
2022-11-25T08:06:00.512Z,100865.94
2022-11-25T08:11:33.350Z,100865.72
2022-11-25T08:14:05.455Z,100874.72
2022-11-25T08:16:36.777Z,100869.94
2022-11-25T08:19:10.811Z,100846.06
2022-11-25T08:21:45.053Z,100863.56
2022-11-25T08:24:18.097Z,100855.91
2022-11-25T08:26:52.678Z,100840.78
2022-11-25T08:29:23.458Z,100851.88
2022-11-25T08:31:58.143Z,100848.63
2022-11-25T08:34:29.436Z,100848.84
2022-11-25T08:37:03.683Z,100841.84
2022-11-25T08:42:27.041Z,100798.38
2022-11-25T08:45:00.824Z,100843.97
2022-11-25T08:47:32.864Z,100829.66
2022-11-25T08:50:04.887Z,100811.66
2022-11-25T08:52:35.663Z,100797.88
2022-11-25T08:55:07.634Z,100786.56
2022-11-25T08:57:40.319Z,100789.44
2022-11-25T09:00:12.523Z,100768.91
2022-11-25T09:02:44.780Z,100730.13
2022-11-25T09:05:17.974Z,100751.09
2022-11-25T09:07:49.565Z,100737.91
2022-11-25T09:10:21.971Z,100727.03
2022-11-25T09:12:55.676Z,100727.84
2022-11-25T09:15:26.602Z,100711.88
2022-11-25T09:18:04.533Z,100724.56
2022-11-25T09:20:36.152Z,100724.22
2022-11-25T09:23:07.828Z,100696.19
2022-11-25T09:25:39.264Z,100713.72
2022-11-25T09:28:16.282Z,100709.94
2022-11-25T09:30:47.177Z,100710.66
2022-11-25T09:33:21.780Z,100714.03
2022-11-25T09:35:52.802Z,100715.81
2022-11-25T09:38:25.886Z,100707.53
2022-11-25T09:41:01.508Z,100629.78
2022-11-25T09:44:07.342Z,100683.25
2022-11-25T09:47:00.369Z,100710.31
2022-11-25T09:49:53.577Z,100701.06
2022-11-25T09:52:36.667Z,100687.44
2022-11-25T09:55:11.248Z,100683.94
2022-11-25T09:57:59.478Z,100677.38
2022-11-25T10:00:40.502Z,100698.47
2022-11-25T10:03:20.164Z,100688.28
2022-11-25T10:06:00.680Z,100678.03
2022-11-25T10:08:36.792Z,100673.63
2022-11-25T10:11:22.116Z,100691.03
2022-11-25T10:13:59.596Z,100686.66
2022-11-25T10:16:38.860Z,100659.75
2022-11-25T10:19:18.780Z,100688.63
2022-11-25T10:21:50.247Z,100661.28
2022-11-25T10:24:22.560Z,100630.75
2022-11-25T10:27:00.846Z,100593.16
2022-11-25T10:29:33.708Z,100652.16
2022-11-25T10:32:28.058Z,100643.75
2022-11-25T10:35:03.372Z,100648.31
2022-11-25T10:37:40.187Z,100640.13
2022-11-25T10:40:20.797Z,100663.47
2022-11-25T10:45:54.340Z,100629.69
2022-11-25T10:48:46.777Z,100639.69
2022-11-25T10:51:37.865Z,100619.66
2022-11-25T10:54:28.049Z,100632.00
2022-11-25T10:57:01.840Z,100557.22
2022-11-25T10:59:41.204Z,100612.63
2022-11-25T11:02:27.365Z,100594.59
2022-11-25T11:05:06.033Z,100586.13
2022-11-25T11:07:38.783Z,100589.38
2022-11-25T11:10:24.346Z,100585.88
2022-11-25T11:13:22.369Z,100576.72
2022-11-25T11:15:57.020Z,100559.72
2022-11-25T11:18:44.800Z,100563.53
2022-11-25T11:21:29.569Z,100555.91
2022-11-25T11:24:00.857Z,100553.34
2022-11-25T11:26:33.570Z,100548.03
2022-11-25T11:29:12.746Z,100538.88
2022-11-25T11:31:51.240Z,100527.09
2022-11-25T11:34:52.837Z,100528.38
2022-11-25T11:37:40.952Z,100534.63
2022-11-25T11:40:38.446Z,100524.22
2022-11-25T11:43:31.789Z,100538.50
2022-11-25T11:46:27.198Z,100533.59
2022-11-25T11:49:15.588Z,100536.84
2022-11-25T11:51:56.736Z,100519.22
2022-11-25T11:54:39.140Z,100517.78
2022-11-25T11:57:16.827Z,100507.28
2022-11-25T11:59:56.951Z,100478.81
2022-11-25T12:02:38.627Z,100494.47
2022-11-25T12:05:30.810Z,100479.81
2022-11-25T12:09:31.156Z,100471.59
2022-11-25T12:12:13.661Z,100471.91
2022-11-25T12:14:47.008Z,100414.16
2022-11-25T12:17:23.457Z,100440.44
2022-11-25T12:20:01.881Z,100430.94
2022-11-25T12:22:40.603Z,100404.03
2022-11-25T12:25:20.039Z,100411.81
2022-11-25T12:27:58.232Z,100415.25
2022-11-25T12:30:37.155Z,100414.53
2022-11-25T12:33:13.850Z,100365.88
2022-11-25T12:35:56.164Z,100379.94
2022-11-25T12:38:40.255Z,100379.28
2022-11-25T12:41:23.337Z,100362.69
2022-11-25T12:44:03.664Z,100388.34
2022-11-25T12:46:42.553Z,100386.00
2022-11-25T12:49:21.549Z,100379.81
2022-11-25T12:52:17.815Z,100382.44
2022-11-25T12:55:16.106Z,100379.72
2022-11-25T12:58:35.306Z,100367.59
2022-11-25T13:01:46.601Z,100357.63
2022-11-25T13:04:49.635Z,100357.72
2022-11-25T13:07:34.256Z,100323.28
2022-11-25T13:10:34.751Z,100344.69
2022-11-25T13:13:34.825Z,100336.34
2022-11-25T13:16:09.029Z,100329.28
2022-11-25T13:18:43.837Z,100325.72
2022-11-25T13:21:15.890Z,100315.22
2022-11-25T13:23:53.307Z,100311.38
2022-11-25T13:26:49.863Z,100300.78
2022-11-25T13:30:04.612Z,100288.06
2022-11-25T13:32:43.873Z,100289.56
2022-11-25T13:35:41.576Z,100273.03
2022-11-25T13:38:50.261Z,100253.13
2022-11-25T13:41:53.111Z,100250.75
2022-11-25T13:44:31.601Z,100224.94
2022-11-25T13:47:27.375Z,100225.88
2022-11-25T13:50:02.153Z,100232.91
2022-11-25T13:52:44.971Z,100200.00
2022-11-25T13:55:37.035Z,100218.44
2022-11-25T13:58:21.399Z,100206.44
2022-11-25T14:01:28.005Z,100178.41
2022-11-25T14:04:03.068Z,100165.63
2022-11-25T14:07:07.451Z,100145.81
2022-11-25T14:09:55.490Z,100073.19
2022-11-25T14:12:48.101Z,100137.09
2022-11-25T14:15:37.619Z,100109.09
2022-11-25T14:19:12.112Z,100125.03
2022-11-25T14:21:44.321Z,100112.41
2022-11-25T14:24:33.959Z,100082.50
2022-11-25T14:27:05.572Z,100081.84
2022-11-25T14:29:42.992Z,100035.19
2022-11-25T14:32:21.417Z,100040.50
2022-11-25T14:35:06.305Z,100004.19
2022-11-25T14:37:44.850Z,100037.22
2022-11-25T14:40:23.824Z,100029.47
2022-11-25T14:43:01.038Z,100038.38
2022-11-25T14:45:34.496Z,99976.16
2022-11-25T14:48:18.857Z,100005.63
2022-11-25T14:51:01.321Z,99982.38
2022-11-25T14:53:35.210Z,99957.59
2022-11-25T14:56:08.097Z,99939.63
2022-11-25T14:58:42.881Z,99918.06
2022-11-25T15:01:21.801Z,99890.41
2022-11-25T15:04:05.384Z,99907.69
2022-11-25T15:06:43.425Z,99906.81
2022-11-25T15:09:24.272Z,99844.44
2022-11-25T15:11:59.012Z,99892.97
2022-11-25T15:14:32.021Z,99855.88
2022-11-25T15:17:10.825Z,99867.13
2022-11-25T15:19:43.475Z,99860.22
2022-11-25T15:22:23.413Z,99843.91
2022-11-25T15:24:56.574Z,99833.44
2022-11-25T15:27:29.392Z,99830.09
2022-11-25T15:30:00.759Z,99804.38
2022-11-25T15:32:34.201Z,99759.38
2022-11-25T15:35:09.548Z,99781.97
2022-11-25T15:37:40.709Z,99743.91
2022-11-25T15:40:37.309Z,99740.72
2022-11-25T15:43:10.900Z,99741.66
2022-11-25T15:45:48.973Z,99720.28
2022-11-25T15:48:22.055Z,99701.50
2022-11-25T15:50:54.466Z,99683.38
2022-11-25T15:53:33.350Z,99680.19
2022-11-25T15:56:06.485Z,99667.34
2022-11-25T15:58:40.170Z,99651.91
2022-11-25T16:01:22.595Z,99645.16
2022-11-25T16:03:54.511Z,99631.53
2022-11-25T16:06:28.409Z,99631.53
2022-11-25T16:09:01.045Z,99604.94
2022-11-25T16:11:47.125Z,99588.53
2022-11-25T16:14:22.455Z,99581.84
2022-11-25T16:16:53.524Z,99570.69
2022-11-25T16:19:29.990Z,99559.53
2022-11-25T16:22:06.446Z,99557.78
2022-11-25T16:24:43.668Z,99499.06
2022-11-25T16:27:26.228Z,99537.19
2022-11-25T16:29:59.533Z,99521.75
2022-11-25T16:32:34.449Z,99502.75
2022-11-25T16:35:23.012Z,99504.41
2022-11-25T16:38:04.010Z,99500.22
2022-11-25T16:40:38.604Z,99477.13
2022-11-25T16:43:17.380Z,99482.28
2022-11-25T16:45:53.431Z,99490.00
2022-11-25T16:48:25.758Z,99470.25
2022-11-25T16:50:56.354Z,99483.88
2022-11-25T16:53:28.711Z,99468.41
2022-11-25T16:55:59.923Z,99446.06
2022-11-25T16:58:30.483Z,99474.41
2022-11-25T17:01:01.293Z,99434.94
2022-11-25T17:03:31.988Z,99448.63
2022-11-25T17:06:02.833Z,99441.81
2022-11-25T17:08:35.142Z,99444.41
2022-11-25T17:11:08.632Z,99406.69
2022-11-25T17:13:45.169Z,99406.69
2022-11-25T17:16:20.050Z,99403.25
2022-11-25T17:18:51.468Z,99399.00
2022-11-25T17:21:25.728Z,99389.59
2022-11-25T17:24:01.364Z,99380.97
2022-11-25T17:26:39.530Z,99355.25
2022-11-25T17:29:14.734Z,99355.28
2022-11-25T17:31:46.611Z,99353.66
2022-11-25T17:34:19.889Z,99351.88
2022-11-25T17:36:53.054Z,99343.34
2022-11-25T17:39:25.572Z,99355.41
2022-11-25T17:41:56.426Z,99331.38
2022-11-25T17:44:32.006Z,99318.56
2022-11-25T17:47:03.022Z,99345.16
2022-11-25T17:49:33.865Z,99309.94
2022-11-25T17:52:04.794Z,99269.56
2022-11-25T17:54:37.760Z,99290.22
2022-11-25T17:57:16.963Z,99279.97
2022-11-25T17:59:47.866Z,99237.09
2022-11-25T18:02:21.556Z,99207.03
2022-11-25T18:04:59.016Z,99254.38
2022-11-25T18:07:29.890Z,99247.50
2022-11-25T18:10:02.361Z,99240.59
2022-11-25T18:12:34.872Z,99224.41
2022-11-25T18:15:09.110Z,99218.47
2022-11-25T18:17:40.607Z,99198.69
2022-11-25T18:20:22.407Z,99197.88
2022-11-25T18:22:53.910Z,99201.28
2022-11-25T18:25:28.315Z,99196.09
2022-11-25T18:28:00.850Z,99168.63
2022-11-25T18:30:34.216Z,99172.00
2022-11-25T18:33:07.116Z,99192.63
2022-11-25T18:35:38.119Z,99168.59
2022-11-25T18:38:09.090Z,99173.72
2022-11-25T18:40:44.208Z,99165.09
2022-11-25T18:43:20.385Z,99151.34
2022-11-25T18:45:51.746Z,99149.59
2022-11-25T18:48:24.069Z,99089.47
2022-11-25T18:50:56.119Z,99170.16
2022-11-25T18:53:27.058Z,99149.47
2022-11-25T18:55:59.429Z,99140.84
2022-11-25T18:58:34.167Z,99115.09
2022-11-25T19:01:08.079Z,99123.63
2022-11-25T19:03:38.932Z,99128.78
2022-11-25T19:06:15.464Z,99118.47
2022-11-25T19:08:46.363Z,99094.34
2022-11-25T19:11:22.337Z,99068.56
2022-11-25T19:13:54.351Z,99075.34
2022-11-25T19:16:26.662Z,99078.81
2022-11-25T19:18:58.243Z,99080.59
2022-11-25T19:21:31.463Z,99072.06
2022-11-25T19:24:02.148Z,99063.63
2022-11-25T19:26:42.281Z,99051.66
2022-11-25T19:29:20.969Z,99047.41
2022-11-25T19:31:54.828Z,98998.56
2022-11-25T19:34:30.179Z,99024.16
2022-11-25T19:37:00.978Z,99029.31
2022-11-25T19:39:36.419Z,99015.63
2022-11-25T19:42:09.071Z,99017.38
2022-11-25T19:44:39.996Z,99010.50
2022-11-25T19:47:18.093Z,99015.69
2022-11-25T19:49:49.700Z,99022.56
2022-11-25T19:52:22.795Z,98975.41
2022-11-25T19:54:53.767Z,99012.31
2022-11-25T19:57:28.510Z,99014.03
2022-11-25T19:59:59.259Z,99026.91
2022-11-25T20:02:30.356Z,99038.09
2022-11-25T20:05:01.413Z,99024.34
2022-11-25T20:07:33.232Z,99020.03
2022-11-25T20:10:17.184Z,98995.09
2022-11-25T20:12:50.099Z,98980.53
2022-11-25T20:15:21.364Z,98959.06
2022-11-25T20:17:53.658Z,98923.03
2022-11-25T20:20:28.543Z,98937.56
2022-11-25T20:23:02.766Z,98874.09
2022-11-25T20:25:34.064Z,98931.56
2022-11-25T20:28:06.631Z,98935.81
2022-11-25T20:30:40.526Z,98941.00
2022-11-25T20:33:11.879Z,98941.81
2022-11-25T20:35:44.509Z,98934.13
2022-11-25T20:38:20.560Z,98953.88
2022-11-25T20:40:53.532Z,98931.59
2022-11-25T20:43:30.987Z,98962.44
2022-11-25T20:46:03.953Z,98945.25
2022-11-25T20:48:36.146Z,98929.75
2022-11-25T20:51:09.956Z,98916.88
2022-11-25T20:53:43.572Z,98914.28
2022-11-25T20:56:18.387Z,98864.47
2022-11-25T20:58:51.405Z,98853.19
2022-11-25T21:01:22.378Z,98857.38
2022-11-25T21:03:53.764Z,98872.72
2022-11-25T21:06:26.683Z,98882.16
2022-11-25T21:08:59.111Z,98825.59
2022-11-25T21:11:33.834Z,98852.94
2022-11-25T21:14:06.289Z,98862.25
2022-11-25T21:16:37.093Z,98844.22
2022-11-25T21:19:07.980Z,98841.63
2022-11-25T21:21:40.807Z,98814.16
2022-11-25T21:24:29.886Z,98783.31
2022-11-25T21:27:08.782Z,98790.91
2022-11-25T21:29:44.850Z,98786.59
2022-11-25T21:32:23.454Z,98827.84
2022-11-25T21:34:54.643Z,98861.38
2022-11-25T21:37:32.334Z,98888.91
2022-11-25T21:40:03.836Z,98917.19
2022-11-25T21:42:36.881Z,98896.66
2022-11-25T21:45:18.750Z,98863.16
2022-11-25T21:47:49.700Z,98881.06
2022-11-25T21:50:21.813Z,98857.06
2022-11-25T21:52:55.656Z,98862.19
2022-11-25T21:55:26.296Z,98860.47
2022-11-25T21:57:57.155Z,98876.81
2022-11-25T22:00:29.587Z,98894.00
2022-11-25T22:03:00.296Z,98901.75
2022-11-25T22:05:31.405Z,98901.72
2022-11-25T22:08:02.031Z,98898.38
2022-11-25T22:10:32.995Z,98860.75
2022-11-25T22:13:04.800Z,98895.00
2022-11-25T22:15:37.684Z,98857.25
2022-11-25T22:18:08.492Z,98864.88
2022-11-25T22:20:39.168Z,98870.78
2022-11-25T22:23:17.091Z,98860.47
2022-11-25T22:25:49.749Z,98839.03
2022-11-25T22:28:23.254Z,98827.81
2022-11-25T22:30:57.319Z,98822.69
2022-11-25T22:33:33.348Z,98858.63
2022-11-25T22:36:04.438Z,98850.00
2022-11-25T22:38:35.229Z,98848.25
2022-11-25T22:41:07.211Z,98868.94
2022-11-25T22:43:42.623Z,98902.50
2022-11-25T22:46:15.040Z,98906.78
2022-11-25T22:48:48.952Z,98864.00
2022-11-25T22:51:24.003Z,98877.53
2022-11-25T22:53:54.926Z,98864.66
2022-11-25T22:56:29.036Z,98881.94
2022-11-25T22:59:01.964Z,98887.88
2022-11-25T23:01:34.393Z,98897.44
2022-11-25T23:04:05.479Z,98905.13
2022-11-25T23:06:41.780Z,98904.28
2022-11-25T23:09:17.978Z,98899.16
2022-11-25T23:11:51.705Z,98869.06
2022-11-25T23:14:22.340Z,98866.56
2022-11-25T23:16:54.754Z,98864.78
2022-11-25T23:19:25.597Z,98869.06
2022-11-25T23:21:56.830Z,98873.41
2022-11-25T23:24:30.921Z,98888.00
2022-11-25T23:27:01.612Z,98898.28
2022-11-25T23:29:32.282Z,98897.41
2022-11-25T23:32:08.201Z,98876.75
2022-11-25T23:34:39.346Z,98865.56
2022-11-25T23:37:12.580Z,98882.72
2022-11-25T23:39:43.815Z,98878.41
2022-11-25T23:42:18.862Z,98879.22
2022-11-25T23:44:49.635Z,98845.66
2022-11-25T23:47:25.205Z,98815.75
2022-11-25T23:49:59.448Z,98821.41
2022-11-25T23:52:30.610Z,98847.28
2022-11-25T23:55:01.564Z,98811.00
2022-11-25T23:57:35.607Z,98780.09
